SKBG/BGA METAR and TAF weather

Enter ICAO airport designator
Station Type Date Time Source
SKBG METAR 2020/07/03 12:00 UTC NOAA

SKBG 031200Z 18003KT 2000 BCFG BKN005 SCT070 19/19 A2998


Station Type Date Time Source
SKBG Decoded METAR 2020/07/03 12:00 UTC NOAA

Bucaramanga / Palonegro, Colombia (SKBG) 07-06N 073-12W
Jul 03, 2020 - 08:00 AM EDT / 2020.07.03 1200 UTC
Wind: from the S (180 degrees) at 3 MPH (3 KT):0
Visibility: 1 mile(s):0
Sky conditions: mostly cloudy
Weather: patches of fog
Temperature: 66 F (19 C)
Dew Point: 66 F (19 C)
Relative Humidity: 100%
Pressure (altimeter): 29.98 in. Hg (1015 hPa)
ob: SKBG 031200Z 18003KT 2000 BCFG BKN005 SCT070 19/19 A2998
cycle: 12

Station Type Date Time Source
SKBG TAF 2020/07/03 12:42 UTC NOAA

TAF TAF SKBG 031030Z 0312/0412 VRB02KT 9999 SCT010 BKN070
TEMPO 0312/0315 2000 BCFG BKN008
BECMG 0315/0317 32010KT PROB40
TEMPO 0321/0402 5000 TSRA BKN008CB
BECMG 0402/0403KT VRB02KT TX26/0318Z TN18/0411Z

Example: see airport list